createdAt,value
2022-11-18T00:01:10.529Z,1.00
2022-11-18T00:03:38.905Z,0.80
2022-11-18T00:06:07.834Z,0.93
2022-11-18T00:08:35.699Z,0.90
2022-11-18T00:11:06.860Z,0.70
2022-11-18T00:13:53.590Z,0.57
2022-11-18T00:16:21.216Z,0.60
2022-11-18T00:18:48.955Z,0.80
2022-11-18T00:21:16.880Z,0.40
2022-11-18T00:23:44.493Z,0.60
2022-11-18T00:26:14.394Z,0.70
2022-11-18T00:28:43.487Z,0.70
2022-11-18T00:31:13.009Z,0.50
2022-11-18T00:33:40.923Z,0.40
2022-11-18T00:36:11.143Z,0.50
2022-11-18T00:38:39.047Z,0.67
2022-11-18T00:41:09.110Z,0.60
2022-11-18T00:43:36.959Z,0.70
2022-11-18T00:46:07.686Z,0.70
2022-11-18T00:48:35.586Z,0.57
2022-11-18T00:51:09.749Z,0.60
2022-11-18T00:53:37.451Z,0.40
2022-11-18T00:56:05.618Z,0.70
2022-11-18T00:58:33.663Z,0.60
2022-11-18T01:01:01.544Z,0.40
2022-11-18T01:03:31.227Z,0.40
2022-11-18T01:05:58.885Z,0.50
2022-11-18T01:08:26.510Z,0.40
2022-11-18T01:10:54.673Z,0.53
2022-11-18T01:13:23.659Z,1.83
2022-11-18T01:15:53.807Z,0.50
2022-11-18T01:18:24.067Z,0.63
2022-11-18T01:20:53.351Z,0.60
2022-11-18T01:23:22.003Z,0.70
2022-11-18T01:25:50.946Z,0.67
2022-11-18T01:28:23.624Z,0.50
2022-11-18T01:30:52.313Z,0.70
2022-11-18T01:33:20.003Z,0.60
2022-11-18T01:35:47.629Z,0.57
2022-11-18T01:38:16.664Z,0.73
2022-11-18T01:40:44.326Z,0.60
2022-11-18T01:43:13.915Z,0.70
2022-11-18T01:45:43.516Z,0.50
2022-11-18T01:48:14.782Z,0.50
2022-11-18T01:50:45.814Z,0.70
2022-11-18T01:53:19.499Z,0.60
2022-11-18T01:55:51.614Z,0.77
2022-11-18T01:58:24.827Z,0.90
2022-11-18T02:00:52.594Z,0.70
2022-11-18T02:03:21.859Z,0.70
2022-11-18T02:05:51.266Z,0.53
2022-11-18T02:08:21.157Z,0.60
2022-11-18T02:10:49.035Z,0.63
2022-11-18T02:13:16.938Z,0.50
2022-11-18T02:15:51.899Z,0.80
2022-11-18T02:18:29.261Z,0.70
2022-11-18T02:21:03.758Z,0.73
2022-11-18T02:24:10.819Z,0.90
2022-11-18T02:27:08.021Z,0.90
2022-11-18T02:29:43.035Z,0.70
2022-11-18T02:32:15.213Z,0.67
2022-11-18T02:34:50.407Z,0.30
2022-11-18T02:37:24.055Z,0.47
2022-11-18T02:39:58.336Z,0.50
2022-11-18T02:42:28.520Z,0.50
2022-11-18T02:45:02.005Z,0.60
2022-11-18T02:47:33.033Z,0.50
2022-11-18T02:50:04.760Z,0.73
2022-11-18T02:52:34.615Z,0.40
2022-11-18T02:55:07.141Z,0.60
2022-11-18T02:57:36.538Z,0.40
2022-11-18T03:00:06.698Z,0.40
2022-11-18T03:02:41.851Z,0.43
2022-11-18T03:05:14.241Z,0.50
2022-11-18T03:07:44.964Z,0.50
2022-11-18T03:10:13.167Z,0.60
2022-11-18T03:12:47.783Z,0.40
2022-11-18T03:15:26.027Z,0.37
2022-11-18T03:17:59.845Z,0.40
2022-11-18T03:20:30.346Z,0.20
2022-11-18T03:23:05.543Z,0.40
2022-11-18T03:25:38.606Z,0.20
2022-11-18T03:28:13.374Z,0.30
2022-11-18T03:30:47.414Z,0.30
2022-11-18T03:33:21.408Z,0.40
2022-11-18T03:35:53.328Z,0.20
2022-11-18T03:38:28.890Z,0.30
2022-11-18T03:41:01.177Z,0.30
2022-11-18T03:43:35.381Z,0.23
2022-11-18T03:46:09.038Z,0.30
2022-11-18T03:48:42.823Z,0.30
2022-11-18T03:51:14.037Z,0.30
2022-11-18T03:53:46.853Z,0.30
2022-11-18T03:56:19.129Z,0.30
2022-11-18T03:58:52.378Z,0.37
2022-11-18T04:01:28.796Z,0.30
2022-11-18T04:03:56.526Z,0.40
2022-11-18T04:06:31.181Z,0.40
2022-11-18T04:09:01.838Z,0.23
2022-11-18T04:11:53.469Z,0.17
2022-11-18T04:14:21.432Z,0.20
2022-11-18T04:16:53.952Z,0.23
2022-11-18T04:19:22.011Z,0.10
2022-11-18T04:21:50.411Z,0.20
2022-11-18T04:24:18.116Z,0.17
2022-11-18T04:26:45.808Z,0.10
2022-11-18T04:29:13.483Z,0.20
2022-11-18T04:31:41.300Z,0.30
2022-11-18T04:34:10.304Z,0.10
2022-11-18T04:36:37.963Z,0.20
2022-11-18T04:39:05.924Z,0.10
2022-11-18T04:41:50.966Z,0.23
2022-11-18T04:44:18.602Z,0.20
2022-11-18T04:46:49.245Z,0.20
2022-11-18T04:49:18.499Z,0.23
2022-11-18T04:51:47.023Z,0.30
2022-11-18T04:54:15.295Z,0.30
2022-11-18T04:56:48.656Z,0.30
2022-11-18T04:59:19.976Z,0.20
2022-11-18T05:01:48.251Z,0.20
2022-11-18T05:04:19.838Z,0.20
2022-11-18T05:06:47.849Z,0.10
2022-11-18T05:09:16.173Z,0.30
2022-11-18T05:12:01.405Z,0.20
2022-11-18T05:14:29.367Z,0.10
2022-11-18T05:16:58.489Z,0.20
2022-11-18T05:19:27.544Z,0.10
2022-11-18T05:21:55.595Z,0.40
2022-11-18T05:24:24.096Z,0.30
2022-11-18T05:26:52.250Z,0.20
2022-11-18T05:29:20.276Z,0.20
2022-11-18T05:31:48.590Z,0.20
2022-11-18T05:34:16.945Z,0.20
2022-11-18T05:36:46.182Z,0.10
2022-11-18T05:39:13.824Z,0.10
2022-11-18T05:41:59.140Z,0.20
2022-11-18T05:44:26.753Z,0.37
2022-11-18T05:46:54.636Z,0.20
2022-11-18T05:49:22.234Z,0.30
2022-11-18T05:51:51.250Z,0.20
2022-11-18T05:54:20.594Z,0.13
2022-11-18T05:56:48.522Z,0.10
2022-11-18T05:59:16.764Z,0.10
2022-11-18T06:01:47.509Z,0.27
2022-11-18T06:04:19.670Z,0.10
2022-11-18T06:06:53.322Z,0.30
2022-11-18T06:09:24.284Z,0.10
2022-11-18T06:11:54.483Z,0.17
2022-11-18T06:14:25.974Z,0.60
2022-11-18T06:16:59.729Z,0.20
2022-11-18T06:19:27.674Z,0.20
2022-11-18T06:21:56.767Z,0.20
2022-11-18T06:24:25.192Z,0.20
2022-11-18T06:26:53.307Z,0.20
2022-11-18T06:29:26.192Z,0.30
2022-11-18T06:31:55.310Z,0.30
2022-11-18T06:34:23.064Z,0.20
2022-11-18T06:36:50.724Z,0.20
2022-11-18T06:39:20.109Z,0.20
2022-11-18T06:41:48.055Z,0.30
2022-11-18T06:44:16.829Z,0.20
2022-11-18T06:46:55.527Z,0.20
2022-11-18T06:49:23.381Z,0.40
2022-11-18T06:51:51.133Z,0.30
2022-11-18T06:54:20.824Z,0.33
2022-11-18T06:56:48.567Z,0.20
2022-11-18T06:59:21.597Z,0.20
2022-11-18T07:01:49.251Z,0.20
2022-11-18T07:04:16.874Z,0.20
2022-11-18T07:06:44.526Z,0.30
2022-11-18T07:09:12.210Z,0.30
2022-11-18T07:11:41.396Z,0.20
2022-11-18T07:14:09.435Z,0.20
2022-11-18T07:16:37.867Z,0.30
2022-11-18T07:19:10.214Z,0.20
2022-11-18T07:21:38.157Z,0.40
2022-11-18T07:24:07.931Z,0.23
2022-11-18T07:26:36.546Z,0.20
2022-11-18T07:29:05.781Z,0.23
2022-11-18T07:31:34.354Z,0.40
2022-11-18T07:34:01.996Z,0.30
2022-11-18T07:36:35.452Z,0.30
2022-11-18T07:39:04.848Z,0.30
2022-11-18T07:41:32.654Z,0.20
2022-11-18T07:44:01.724Z,0.30
2022-11-18T07:46:32.884Z,0.20
2022-11-18T07:49:02.540Z,0.17
2022-11-18T07:51:31.937Z,0.20
2022-11-18T07:53:59.536Z,0.40
2022-11-18T07:56:27.248Z,0.10
2022-11-18T07:58:55.975Z,0.20
2022-11-18T08:01:27.532Z,0.20
2022-11-18T08:03:56.816Z,0.27
2022-11-18T08:06:24.543Z,0.20
2022-11-18T08:08:52.156Z,0.30
2022-11-18T08:11:22.903Z,0.30
2022-11-18T08:13:52.163Z,0.20
2022-11-18T08:16:22.358Z,0.30
2022-11-18T08:18:50.345Z,0.60
2022-11-18T08:21:21.040Z,0.30
2022-11-18T08:23:51.468Z,0.40
2022-11-18T08:26:19.488Z,0.40
2022-11-18T08:28:47.511Z,0.30
2022-11-18T08:31:18.482Z,0.40
2022-11-18T08:33:46.555Z,0.57
2022-11-18T08:36:16.814Z,0.70
2022-11-18T08:38:48.104Z,0.50
2022-11-18T08:41:17.588Z,1.33
2022-11-18T08:43:45.282Z,0.60
2022-11-18T08:46:12.984Z,0.60
2022-11-18T08:48:40.657Z,0.40
2022-11-18T08:51:10.671Z,0.57
2022-11-18T08:53:38.335Z,0.50
2022-11-18T08:56:07.754Z,0.50
2022-11-18T08:58:35.332Z,0.57
2022-11-18T09:01:05.893Z,0.53
2022-11-18T09:03:33.555Z,0.50
2022-11-18T09:06:06.985Z,0.63
2022-11-18T09:08:34.651Z,0.80
2022-11-18T09:11:08.335Z,0.60
2022-11-18T09:16:27.886Z,0.67
2022-11-18T09:18:56.806Z,0.70
2022-11-18T09:21:24.865Z,0.53
2022-11-18T09:23:52.683Z,0.80
2022-11-18T09:26:23.783Z,0.60
2022-11-18T09:28:53.831Z,0.90
2022-11-18T09:31:21.785Z,0.80
2022-11-18T09:33:49.416Z,1.23
2022-11-18T09:36:18.603Z,1.10
2022-11-18T09:38:51.674Z,0.60
2022-11-18T09:41:34.722Z,0.77
2022-11-18T09:44:13.260Z,0.50
2022-11-18T09:46:52.203Z,0.37
2022-11-18T09:49:27.354Z,0.37
2022-11-18T09:51:55.810Z,0.40
2022-11-18T09:54:25.633Z,0.80
2022-11-18T09:56:56.644Z,0.40
2022-11-18T09:59:27.290Z,0.27
2022-11-18T10:02:02.836Z,0.50
2022-11-18T10:04:30.711Z,0.40
2022-11-18T10:06:58.431Z,0.40
2022-11-18T10:09:35.545Z,0.50
2022-11-18T10:12:18.059Z,0.47
2022-11-18T10:15:09.691Z,0.50
2022-11-18T10:17:50.496Z,0.47
2022-11-18T10:20:38.714Z,0.50
2022-11-18T10:23:16.262Z,0.40
2022-11-18T10:25:44.159Z,0.33
2022-11-18T10:28:21.906Z,0.50
2022-11-18T10:30:49.541Z,0.40
2022-11-18T10:33:28.427Z,0.40
2022-11-18T10:36:27.769Z,0.30
2022-11-18T10:39:10.699Z,0.40
2022-11-18T10:41:45.649Z,0.37
2022-11-18T10:44:36.580Z,0.40
2022-11-18T10:47:30.206Z,0.40
2022-11-18T10:49:59.861Z,0.37
2022-11-18T10:52:29.857Z,0.30
2022-11-18T10:55:25.647Z,0.43
2022-11-18T10:57:57.347Z,0.40
2022-11-18T11:00:44.616Z,0.43
2022-11-18T11:03:38.961Z,0.50
2022-11-18T11:06:37.868Z,0.30
2022-11-18T11:09:09.588Z,0.30
2022-11-18T11:11:40.059Z,0.37
2022-11-18T11:14:16.991Z,0.57
2022-11-18T11:16:51.367Z,0.40
2022-11-18T11:19:24.030Z,0.50
2022-11-18T11:21:52.489Z,0.80
2022-11-18T11:24:23.595Z,0.90
2022-11-18T11:30:06.884Z,1.00
2022-11-18T11:32:50.831Z,0.60
2022-11-18T11:35:21.802Z,0.50
2022-11-18T11:37:54.539Z,0.57
2022-11-18T11:40:30.351Z,0.50
2022-11-18T11:43:17.157Z,0.50
2022-11-18T11:46:03.554Z,0.70
2022-11-18T11:48:46.717Z,0.93
2022-11-18T11:51:21.149Z,0.47
2022-11-18T11:54:09.546Z,0.50
2022-11-18T11:56:43.936Z,0.80
2022-11-18T11:59:23.602Z,0.53
2022-11-18T12:02:00.991Z,0.60
2022-11-18T12:04:37.850Z,0.60
2022-11-18T12:07:08.312Z,0.50
2022-11-18T12:09:48.926Z,0.40
2022-11-18T12:12:35.757Z,0.50
2022-11-18T12:15:21.191Z,0.30
2022-11-18T12:17:57.821Z,0.47
2022-11-18T12:20:42.208Z,0.50
2022-11-18T12:23:11.615Z,0.37
2022-11-18T12:25:52.904Z,0.50
2022-11-18T12:28:25.994Z,0.50
2022-11-18T12:31:26.802Z,0.70
2022-11-18T12:33:57.416Z,0.60
2022-11-18T12:36:32.410Z,0.50
2022-11-18T12:39:20.500Z,0.30
2022-11-18T12:42:14.209Z,0.30
2022-11-18T12:44:42.727Z,0.30
2022-11-18T12:47:11.330Z,0.47
2022-11-18T12:50:13.299Z,0.40
2022-11-18T12:52:53.698Z,0.40
2022-11-18T12:55:31.851Z,0.60
2022-11-18T12:57:59.451Z,0.50
2022-11-18T13:00:51.992Z,0.47
2022-11-18T13:03:28.757Z,0.40
2022-11-18T13:06:06.746Z,0.40
2022-11-18T13:08:36.033Z,0.60
2022-11-18T13:11:28.489Z,0.40
2022-11-18T13:14:10.251Z,0.33
2022-11-18T13:16:56.282Z,0.60
2022-11-18T13:19:24.964Z,0.50
2022-11-18T13:22:12.978Z,0.43
2022-11-18T13:24:46.989Z,0.47
2022-11-18T13:27:36.311Z,0.30
2022-11-18T13:30:08.383Z,0.40
2022-11-18T13:32:36.044Z,0.30
2022-11-18T13:35:14.325Z,0.30
2022-11-18T13:37:51.225Z,0.30
2022-11-18T13:40:26.429Z,0.30
2022-11-18T13:42:54.464Z,0.33
2022-11-18T13:45:25.686Z,0.50
2022-11-18T13:47:59.217Z,0.50
2022-11-18T13:50:31.823Z,0.40
2022-11-18T13:53:10.596Z,0.40
2022-11-18T13:55:46.974Z,0.80
2022-11-18T13:58:33.980Z,0.47
2022-11-18T14:01:16.390Z,0.50
2022-11-18T14:03:50.779Z,0.40
2022-11-18T14:06:26.584Z,0.80
2022-11-18T14:09:06.794Z,0.60
2022-11-18T14:11:41.383Z,0.90
2022-11-18T14:14:10.834Z,0.60
2022-11-18T14:16:40.151Z,0.87
2022-11-18T14:19:08.751Z,1.30
2022-11-18T14:21:38.796Z,0.70
2022-11-18T14:24:07.198Z,0.87
2022-11-18T14:26:37.052Z,0.80
2022-11-18T14:29:21.025Z,0.90
2022-11-18T14:32:05.235Z,0.93
2022-11-18T14:34:33.263Z,0.90
2022-11-18T14:37:00.868Z,0.90
2022-11-18T14:39:29.975Z,1.17
2022-11-18T14:41:59.209Z,0.90
2022-11-18T14:44:30.522Z,0.87
2022-11-18T14:46:59.848Z,0.80
2022-11-18T14:49:30.743Z,0.77
2022-11-18T14:51:59.172Z,0.70
2022-11-18T14:54:27.980Z,0.57
2022-11-18T14:56:59.085Z,1.00
2022-11-18T14:59:28.357Z,0.70
2022-11-18T15:01:57.100Z,0.90
2022-11-18T15:04:25.533Z,0.60
2022-11-18T15:06:55.878Z,0.50
2022-11-18T15:09:23.613Z,0.60
2022-11-18T15:11:51.248Z,0.50
2022-11-18T15:14:19.062Z,0.50
2022-11-18T15:16:48.217Z,0.57
2022-11-18T15:19:16.920Z,0.40
2022-11-18T15:21:45.277Z,0.60
2022-11-18T15:24:12.968Z,0.80
2022-11-18T15:26:42.962Z,0.50
2022-11-18T15:29:17.175Z,0.60
2022-11-18T15:31:44.807Z,0.53
2022-11-18T15:34:14.172Z,0.50
2022-11-18T15:36:41.861Z,0.50
2022-11-18T15:39:11.013Z,0.77
2022-11-18T15:41:40.113Z,0.80
2022-11-18T15:44:07.943Z,0.57
2022-11-18T15:46:35.553Z,0.67
2022-11-18T15:49:03.363Z,0.70
2022-11-18T15:51:33.320Z,0.60
2022-11-18T15:54:00.928Z,0.73
2022-11-18T15:56:30.780Z,0.80
2022-11-18T15:59:00.896Z,0.90
2022-11-18T16:01:30.195Z,1.00
2022-11-18T16:03:58.361Z,0.80
2022-11-18T16:06:27.949Z,1.10
2022-11-18T16:08:59.965Z,1.00
2022-11-18T16:11:46.481Z,0.80
2022-11-18T16:14:16.029Z,0.90
2022-11-18T16:16:45.662Z,0.97
2022-11-18T16:19:15.615Z,1.07
2022-11-18T16:21:47.164Z,0.97
2022-11-18T16:24:19.043Z,0.90
2022-11-18T16:26:47.213Z,1.10
2022-11-18T16:29:16.874Z,0.73
2022-11-18T16:31:50.311Z,0.90
2022-11-18T16:34:19.534Z,1.00
2022-11-18T16:36:49.077Z,1.00
2022-11-18T16:39:20.126Z,1.20
2022-11-18T16:41:48.013Z,1.27
2022-11-18T16:44:20.984Z,1.50
2022-11-18T16:46:50.717Z,1.17
2022-11-18T16:49:22.571Z,1.30
2022-11-18T16:51:51.939Z,1.00
2022-11-18T16:54:23.956Z,1.10
2022-11-18T16:56:53.253Z,1.40
2022-11-18T16:59:22.880Z,1.30
2022-11-18T17:01:53.998Z,1.20
2022-11-18T17:04:24.430Z,1.30
2022-11-18T17:06:52.426Z,1.10
2022-11-18T17:09:30.165Z,1.57
2022-11-18T17:11:59.593Z,1.20
2022-11-18T17:14:27.603Z,1.50
2022-11-18T17:17:10.915Z,1.57
2022-11-18T17:19:43.956Z,1.40
2022-11-18T17:22:33.608Z,1.57
2022-11-18T17:25:05.489Z,1.20
2022-11-18T17:27:35.473Z,1.50
2022-11-18T17:30:03.780Z,1.60
2022-11-18T17:32:47.694Z,1.53
2022-11-18T17:35:16.240Z,3.20
2022-11-18T17:37:44.677Z,1.40
2022-11-18T17:40:14.342Z,1.27
2022-11-18T17:42:41.986Z,1.40
2022-11-18T17:45:10.521Z,1.60
2022-11-18T17:47:38.179Z,1.47
2022-11-18T17:50:06.315Z,1.67
2022-11-18T17:52:34.125Z,1.60
2022-11-18T17:55:02.936Z,1.50
2022-11-18T17:57:32.220Z,1.50
2022-11-18T18:00:00.027Z,1.67
2022-11-18T18:02:28.127Z,1.63
2022-11-18T18:04:58.120Z,1.47
2022-11-18T18:07:25.839Z,1.30
2022-11-18T18:09:53.472Z,1.40
2022-11-18T18:12:50.260Z,1.20
2022-11-18T18:15:19.519Z,1.77
2022-11-18T18:17:47.758Z,1.37
2022-11-18T18:20:24.842Z,1.60
2022-11-18T18:22:54.476Z,1.60
2022-11-18T18:25:22.170Z,1.40
2022-11-18T18:27:49.871Z,1.50
2022-11-18T18:30:19.522Z,1.40
2022-11-18T18:32:52.208Z,1.60
2022-11-18T18:35:20.274Z,1.83
2022-11-18T18:37:47.886Z,1.57
2022-11-18T18:40:16.210Z,1.43
2022-11-18T18:42:48.934Z,1.87
2022-11-18T18:45:33.996Z,1.60
2022-11-18T18:48:23.334Z,1.73
2022-11-18T18:50:51.259Z,1.33
2022-11-18T18:53:19.073Z,1.40
2022-11-18T18:55:46.907Z,1.33
2022-11-18T18:58:14.505Z,1.53
2022-11-18T19:00:42.114Z,1.30
2022-11-18T19:03:11.617Z,1.57
2022-11-18T19:06:16.986Z,1.80
2022-11-18T19:08:30.218Z,1.70
2022-11-18T19:10:57.811Z,1.60
2022-11-18T19:13:28.240Z,1.60
2022-11-18T19:15:56.256Z,1.47
2022-11-18T19:18:25.429Z,1.73
2022-11-18T19:20:53.107Z,1.60
2022-11-18T19:23:20.712Z,1.90
2022-11-18T19:25:48.311Z,1.90
2022-11-18T19:28:15.889Z,1.63
2022-11-18T19:30:43.579Z,1.40
2022-11-18T19:33:12.861Z,1.90
2022-11-18T19:35:41.859Z,2.43
2022-11-18T19:38:09.530Z,1.67
2022-11-18T19:40:37.164Z,1.73
2022-11-18T19:43:04.754Z,1.90
2022-11-18T19:45:32.421Z,1.70
2022-11-18T19:48:01.687Z,1.63
2022-11-18T19:50:44.601Z,1.70
2022-11-18T19:53:26.156Z,1.50
2022-11-18T19:55:56.060Z,1.60
2022-11-18T19:58:24.115Z,1.53
2022-11-18T20:01:33.356Z,1.83
2022-11-18T20:04:02.988Z,1.67
2022-11-18T20:06:32.153Z,1.67
2022-11-18T20:08:59.740Z,1.83
2022-11-18T20:11:28.034Z,1.43
2022-11-18T20:13:56.062Z,1.30
2022-11-18T20:16:25.362Z,1.53
2022-11-18T20:18:54.850Z,1.80
2022-11-18T20:21:23.794Z,1.53
2022-11-18T20:23:55.274Z,1.77
2022-11-18T20:26:25.049Z,1.80
2022-11-18T20:28:57.406Z,1.70
2022-11-18T20:34:16.945Z,1.30
2022-11-18T20:36:44.731Z,1.70
2022-11-18T20:39:15.969Z,1.47
2022-11-18T20:41:43.635Z,1.77
2022-11-18T20:44:11.372Z,1.53
2022-11-18T20:46:39.155Z,1.60
2022-11-18T20:49:06.922Z,1.30
2022-11-18T20:51:34.915Z,1.80
2022-11-18T20:54:08.586Z,1.40
2022-11-18T20:56:37.577Z,1.50
2022-11-18T20:59:05.177Z,1.60
2022-11-18T21:01:53.348Z,1.67
2022-11-18T21:04:49.011Z,1.70
2022-11-18T21:07:18.751Z,2.17
2022-11-18T21:09:55.186Z,1.80
2022-11-18T21:12:24.688Z,1.47
2022-11-18T21:14:51.837Z,1.30
2022-11-18T21:17:19.451Z,1.20
2022-11-18T21:19:48.482Z,1.40
2022-11-18T21:22:15.327Z,1.40
2022-11-18T21:24:42.987Z,1.60
2022-11-18T21:27:10.840Z,1.67
2022-11-18T21:29:41.452Z,1.87
2022-11-18T21:32:09.095Z,1.50
2022-11-18T21:34:36.705Z,1.40
2022-11-18T21:37:05.284Z,1.57
2022-11-18T21:39:32.960Z,1.40
2022-11-18T21:42:01.182Z,1.50
2022-11-18T21:44:28.888Z,1.37
2022-11-18T21:46:59.615Z,1.60
2022-11-18T21:49:27.219Z,1.83
2022-11-18T21:51:54.824Z,1.50
2022-11-18T21:54:22.489Z,1.47
2022-11-18T21:56:50.205Z,1.70
2022-11-18T21:59:28.418Z,1.43
2022-11-18T22:01:56.090Z,1.40
2022-11-18T22:04:55.809Z,1.23
2022-11-18T22:07:24.972Z,1.20
2022-11-18T22:09:52.893Z,1.50
2022-11-18T22:12:20.536Z,1.00
2022-11-18T22:17:55.192Z,1.30
2022-11-18T22:20:24.189Z,1.50
2022-11-18T22:22:51.791Z,1.10
2022-11-18T22:25:19.440Z,1.10
2022-11-18T22:27:47.338Z,1.20
2022-11-18T22:30:15.712Z,1.30
2022-11-18T22:32:43.528Z,1.33
2022-11-18T22:35:11.216Z,1.30
2022-11-18T22:37:40.229Z,1.17
2022-11-18T22:40:09.553Z,1.30
2022-11-18T22:42:48.290Z,1.20
2022-11-18T22:45:16.357Z,1.00
2022-11-18T22:47:44.055Z,1.10
2022-11-18T22:50:11.997Z,1.20
2022-11-18T22:52:41.499Z,0.90
2022-11-18T22:55:09.812Z,0.70
2022-11-18T22:57:37.826Z,1.03
2022-11-18T23:00:07.143Z,0.93
2022-11-18T23:02:34.803Z,0.70
2022-11-18T23:05:03.121Z,0.70
2022-11-18T23:07:30.928Z,0.80
2022-11-18T23:10:15.327Z,1.00
2022-11-18T23:13:00.883Z,1.20
2022-11-18T23:15:45.367Z,1.70
2022-11-18T23:18:15.035Z,1.30
2022-11-18T23:20:42.916Z,1.30
2022-11-18T23:23:10.568Z,1.00
2022-11-18T23:25:40.249Z,1.00
2022-11-18T23:28:08.352Z,0.90
2022-11-18T23:30:36.047Z,1.00
2022-11-18T23:33:04.072Z,1.10
2022-11-18T23:35:32.660Z,1.00
2022-11-18T23:38:00.608Z,0.87
2022-11-18T23:40:29.022Z,0.90
2022-11-18T23:42:58.512Z,0.67
2022-11-18T23:45:29.608Z,0.70
2022-11-18T23:47:58.488Z,0.53
2022-11-18T23:50:26.150Z,0.90
2022-11-18T23:53:14.891Z,0.60
2022-11-18T23:55:42.508Z,0.57
2022-11-18T23:58:11.669Z,0.67
